Time,TemperatureF,DewpointF,PressureIn,WindDirection,WindDirectionDegrees,WindSpeedMPH,WindSpeedGustMPH,Humidity,HourlyPrecipIn,Conditions,Clouds,dailyrainin,SoftwareType,DateUTC
2013-08-06 00:01:00,74.8,68.7,29.10,SSW,202,0.0,0.0,81,0.00,,,0.00,WUHU21623XXSP,2013-08-06 04:01:00,
2013-08-06 00:06:00,74.8,68.7,29.10,SSW,202,0.0,0.0,81,0.00,,,0.00,WUHU21623XXSP,2013-08-06 04:06:00,
2013-08-06 00:11:00,74.8,68.7,29.10,SSW,202,0.0,0.0,81,0.00,,,0.00,WUHU21623XXSP,2013-08-06 04:11:00,
2013-08-06 00:16:00,74.8,68.7,29.10,SSW,202,0.0,0.0,81,0.00,,,0.00,WUHU21623XXSP,2013-08-06 04:16:00,
2013-08-06 00:22:00,74.8,68.7,29.10,SSW,202,0.0,0.0,81,0.00,,,0.00,WUHU21623XXSP,2013-08-06 04:22:00,
2013-08-06 00:26:00,74.5,68.3,29.10,SSW,202,0.0,0.0,81,0.00,,,0.00,WUHU21623XXSP,2013-08-06 04:26:00,
2013-08-06 00:32:00,74.5,68.7,29.10,SSW,202,0.0,0.0,82,0.00,,,0.00,WUHU21623XXSP,2013-08-06 04:32:00,
2013-08-06 00:37:00,74.5,68.7,29.11,SSW,202,0.0,0.0,82,0.00,,,0.00,WUHU21623XXSP,2013-08-06 04:37:00,
2013-08-06 00:42:00,74.3,68.5,29.10,SSW,202,0.0,0.0,82,0.00,,,0.00,WUHU21623XXSP,2013-08-06 04:42:00,
2013-08-06 00:47:00,74.3,68.5,29.10,SSW,202,0.0,0.0,82,0.00,,,0.00,WUHU21623XXSP,2013-08-06 04:47:00,
2013-08-06 00:52:00,74.1,68.3,29.11,SSW,202,0.0,0.0,82,0.00,,,0.00,WUHU21623XXSP,2013-08-06 04:52:00,
2013-08-06 00:57:00,74.1,68.3,29.10,SSW,202,0.0,0.0,82,0.00,,,0.00,WUHU21623XXSP,2013-08-06 04:57:00,
2013-08-06 01:02:00,74.1,68.3,29.11,SSW,202,0.0,0.0,82,0.00,,,0.00,WUHU21623XXSP,2013-08-06 05:02:00,
2013-08-06 01:10:00,74.1,68.3,29.11,SSW,202,0.0,0.0,82,0.00,,,0.00,WUHU21623XXSP,2013-08-06 05:10:00,
2013-08-06 01:15:00,74.1,68.7,29.10,SSW,202,0.0,0.0,83,0.00,,,0.00,WUHU21623XXSP,2013-08-06 05:15:00,
2013-08-06 01:20:00,74.1,68.7,29.10,SSW,202,0.0,0.0,83,0.00,,,0.00,WUHU21623XXSP,2013-08-06 05:20:00,
2013-08-06 01:25:00,73.9,68.5,29.10,SSW,202,0.0,0.0,83,0.00,,,0.00,WUHU21623XXSP,2013-08-06 05:25:00,
2013-08-06 01:30:00,73.9,68.5,29.10,SSW,202,0.0,0.0,83,0.00,,,0.00,WUHU21623XXSP,2013-08-06 05:30:00,
2013-08-06 01:35:00,73.9,68.5,29.10,SSW,202,0.0,0.0,83,0.00,,,0.00,WUHU21623XXSP,2013-08-06 05:35:00,
2013-08-06 01:40:00,73.9,68.5,29.10,SSW,202,0.0,0.0,83,0.00,,,0.00,WUHU21623XXSP,2013-08-06 05:40:00,
2013-08-06 01:45:00,73.8,68.3,29.10,SSW,202,0.0,0.0,83,0.00,,,0.00,WUHU21623XXSP,2013-08-06 05:45:00,
2013-08-06 01:50:00,73.8,68.6,29.10,SSW,202,0.0,0.0,84,0.00,,,0.00,WUHU21623XXSP,2013-08-06 05:50:00,
2013-08-06 01:55:00,73.9,68.8,29.10,SSW,202,0.0,0.0,84,0.00,,,0.00,WUHU21623XXSP,2013-08-06 05:55:00,
2013-08-06 02:00:00,73.8,68.6,29.10,SSW,202,0.0,0.0,84,0.00,,,0.00,WUHU21623XXSP,2013-08-06 06:00:00,
2013-08-06 02:05:00,73.8,68.6,29.10,SSW,202,0.0,0.0,84,0.00,,,0.00,WUHU21623XXSP,2013-08-06 06:05:00,
2013-08-06 02:10:00,73.8,68.6,29.10,SSW,202,0.0,0.0,84,0.00,,,0.00,WUHU21623XXSP,2013-08-06 06:10:00,
2013-08-06 02:15:00,73.6,68.5,29.10,SSW,202,0.0,0.0,84,0.00,,,0.00,WUHU21623XXSP,2013-08-06 06:15:00,
2013-08-06 02:20:00,73.6,68.5,29.10,SSW,202,0.0,0.0,84,0.00,,,0.00,WUHU21623XXSP,2013-08-06 06:20:00,
2013-08-06 02:25:00,73.6,68.5,29.10,SSW,202,0.0,0.0,84,0.00,,,0.00,WUHU21623XXSP,2013-08-06 06:25:00,
2013-08-06 02:30:00,73.6,68.5,29.10,SSW,202,0.0,0.0,84,0.00,,,0.00,WUHU21623XXSP,2013-08-06 06:30:00,
2013-08-06 02:35:00,73.6,68.5,29.09,SSW,202,0.0,0.0,84,0.00,,,0.00,WUHU21623XXSP,2013-08-06 06:35:00,
2013-08-06 02:40:00,73.6,68.5,29.09,SSW,202,0.0,0.0,84,0.00,,,0.00,WUHU21623XXSP,2013-08-06 06:40:00,
2013-08-06 02:45:00,73.6,68.5,29.09,SSW,202,0.0,0.0,84,0.00,,,0.00,WUHU21623XXSP,2013-08-06 06:45:00,
2013-08-06 02:50:00,73.6,68.8,29.09,SSW,202,0.0,0.0,85,0.00,,,0.00,WUHU21623XXSP,2013-08-06 06:50:00,
2013-08-06 02:55:00,73.6,68.8,29.09,SSW,202,0.0,0.0,85,0.00,,,0.00,WUHU21623XXSP,2013-08-06 06:55:00,
2013-08-06 03:00:00,73.6,68.8,29.08,SSW,202,0.0,0.0,85,0.00,,,0.00,WUHU21623XXSP,2013-08-06 07:00:00,
2013-08-06 03:05:00,73.6,68.8,29.08,SSW,202,0.0,0.0,85,0.00,,,0.00,WUHU21623XXSP,2013-08-06 07:05:00,
2013-08-06 03:10:00,73.6,68.8,29.08,SSW,202,0.0,0.0,85,0.00,,,0.00,WUHU21623XXSP,2013-08-06 07:10:00,
2013-08-06 03:15:00,73.4,68.6,29.08,SSW,202,0.0,0.0,85,0.00,,,0.00,WUHU21623XXSP,2013-08-06 07:15:00,
2013-08-06 03:20:00,73.4,68.6,29.08,SSW,202,0.0,0.0,85,0.00,,,0.00,WUHU21623XXSP,2013-08-06 07:20:00,
2013-08-06 03:25:00,73.4,68.6,29.08,SSW,202,0.0,0.0,85,0.00,,,0.00,WUHU21623XXSP,2013-08-06 07:25:00,
2013-08-06 03:30:00,73.6,68.8,29.08,West,270,0.0,0.0,85,0.00,,,0.00,WUHU21623XXSP,2013-08-06 07:30:00,
2013-08-06 03:35:00,73.6,68.8,29.08,West,270,0.0,0.0,85,0.00,,,0.00,WUHU21623XXSP,2013-08-06 07:35:00,
2013-08-06 03:40:00,73.6,69.2,29.08,West,270,0.0,0.0,86,0.00,,,0.00,WUHU21623XXSP,2013-08-06 07:40:00,
2013-08-06 03:45:00,73.6,69.2,29.08,West,270,0.0,0.0,86,0.00,,,0.00,WUHU21623XXSP,2013-08-06 07:45:00,
2013-08-06 03:50:00,73.9,69.9,29.08,West,270,0.0,0.0,87,0.00,,,0.00,WUHU21623XXSP,2013-08-06 07:50:00,
2013-08-06 03:55:00,73.9,69.9,29.08,West,270,0.0,0.0,87,0.00,,,0.00,WUHU21623XXSP,2013-08-06 07:55:00,
2013-08-06 04:00:00,73.9,69.9,29.07,West,270,0.0,0.0,87,0.00,,,0.00,WUHU21623XXSP,2013-08-06 08:00:00,
2013-08-06 04:05:00,74.1,70.0,29.08,West,270,0.0,0.0,87,0.00,,,0.00,WUHU21623XXSP,2013-08-06 08:05:00,
2013-08-06 04:10:00,74.1,70.0,29.08,West,270,0.0,0.0,87,0.00,,,0.00,WUHU21623XXSP,2013-08-06 08:10:00,
2013-08-06 04:15:00,74.1,70.0,29.08,West,270,0.0,0.0,87,0.00,,,0.00,WUHU21623XXSP,2013-08-06 08:15:00,
2013-08-06 04:20:00,74.1,70.0,29.08,West,270,0.0,0.0,87,0.00,,,0.00,WUHU21623XXSP,2013-08-06 08:20:00,
2013-08-06 04:25:00,74.3,70.2,29.08,West,270,0.0,0.0,87,0.00,,,0.00,WUHU21623XXSP,2013-08-06 08:25:00,
2013-08-06 04:30:00,74.3,70.6,29.08,West,270,0.0,0.0,88,0.00,,,0.00,WUHU21623XXSP,2013-08-06 08:30:00,
2013-08-06 04:35:00,74.5,70.7,29.08,WNW,292,0.0,0.0,88,0.00,,,0.00,WUHU21623XXSP,2013-08-06 08:35:00,
2013-08-06 04:40:00,74.5,70.7,29.08,WNW,292,0.0,0.0,88,0.00,,,0.00,WUHU21623XXSP,2013-08-06 08:40:00,
2013-08-06 04:45:00,74.5,70.7,29.08,West,270,0.0,0.0,88,0.00,,,0.00,WUHU21623XXSP,2013-08-06 08:45:00,
2013-08-06 04:50:00,74.5,70.7,29.08,West,270,0.0,0.0,88,0.00,,,0.00,WUHU21623XXSP,2013-08-06 08:50:00,
2013-08-06 04:55:00,74.7,70.9,29.08,West,270,0.0,0.0,88,0.00,,,0.00,WUHU21623XXSP,2013-08-06 08:55:00,
2013-08-06 05:00:00,74.7,70.9,29.08,WNW,292,0.0,0.0,88,0.00,,,0.00,WUHU21623XXSP,2013-08-06 09:00:00,
2013-08-06 05:05:00,74.8,71.1,29.09,WNW,292,0.0,0.0,88,0.00,,,0.00,WUHU21623XXSP,2013-08-06 09:05:00,
2013-08-06 05:10:00,74.8,71.1,29.09,WNW,292,0.0,0.0,88,0.00,,,0.00,WUHU21623XXSP,2013-08-06 09:10:00,
2013-08-06 05:15:00,74.8,71.1,29.09,West,270,0.0,0.0,88,0.00,,,0.00,WUHU21623XXSP,2013-08-06 09:15:00,
2013-08-06 05:20:00,74.8,71.1,29.09,West,270,0.0,0.0,88,0.00,,,0.00,WUHU21623XXSP,2013-08-06 09:20:00,
2013-08-06 05:25:00,74.8,71.1,29.09,West,270,0.0,0.0,88,0.00,,,0.00,WUHU21623XXSP,2013-08-06 09:25:00,
2013-08-06 05:30:00,74.8,71.1,29.09,West,270,0.0,0.0,88,0.00,,,0.00,WUHU21623XXSP,2013-08-06 09:30:00,
2013-08-06 05:35:00,74.8,71.1,29.09,West,270,0.0,0.0,88,0.00,,,0.00,WUHU21623XXSP,2013-08-06 09:35:00,
2013-08-06 05:40:00,74.8,71.1,29.09,West,270,0.0,0.0,88,0.00,,,0.00,WUHU21623XXSP,2013-08-06 09:40:00,
2013-08-06 05:45:00,74.8,70.8,29.09,West,270,0.0,0.0,87,0.00,,,0.00,WUHU21623XXSP,2013-08-06 09:45:00,
2013-08-06 05:50:00,74.8,70.8,29.09,West,270,0.0,0.0,87,0.00,,,0.00,WUHU21623XXSP,2013-08-06 09:50:00,
2013-08-06 05:55:00,74.8,70.8,29.09,West,270,0.0,0.0,87,0.00,,,0.00,WUHU21623XXSP,2013-08-06 09:55:00,
2013-08-06 06:00:00,74.8,70.8,29.09,West,270,0.0,0.0,87,0.00,,,0.00,WUHU21623XXSP,2013-08-06 10:00:00,
2013-08-06 06:05:00,74.8,70.8,29.09,West,270,0.0,0.0,87,0.00,,,0.00,WUHU21623XXSP,2013-08-06 10:05:00,
2013-08-06 06:10:00,74.8,70.8,29.09,West,270,0.0,0.0,87,0.00,,,0.00,WUHU21623XXSP,2013-08-06 10:10:00,
2013-08-06 06:15:00,74.8,70.8,29.08,West,270,0.0,0.0,87,0.00,,,0.00,WUHU21623XXSP,2013-08-06 10:15:00,
2013-08-06 06:21:00,74.8,70.8,29.08,West,270,0.0,0.0,87,0.00,,,0.00,WUHU21623XXSP,2013-08-06 10:21:00,
2013-08-06 06:26:00,74.8,70.8,29.08,West,270,0.0,0.0,87,0.00,,,0.00,WUHU21623XXSP,2013-08-06 10:26:00,
2013-08-06 06:31:00,74.8,70.8,29.08,West,270,0.0,0.0,87,0.00,,,0.00,WUHU21623XXSP,2013-08-06 10:31:00,
2013-08-06 06:35:00,74.8,70.8,29.09,West,270,0.0,0.0,87,0.00,,,0.00,WUHU21623XXSP,2013-08-06 10:35:00,
2013-08-06 06:41:00,74.8,70.8,29.09,West,270,0.0,0.0,87,0.00,,,0.00,WUHU21623XXSP,2013-08-06 10:41:00,
2013-08-06 06:46:00,74.8,70.8,29.09,West,270,0.0,0.0,87,0.00,,,0.00,WUHU21623XXSP,2013-08-06 10:46:00,
2013-08-06 06:51:00,74.8,70.8,29.10,West,270,0.0,0.0,87,0.00,,,0.00,WUHU21623XXSP,2013-08-06 10:51:00,
2013-08-06 06:56:00,75.0,70.9,29.10,West,270,0.0,0.0,87,0.00,,,0.00,WUHU21623XXSP,2013-08-06 10:56:00,
2013-08-06 07:01:00,74.8,70.8,29.10,West,270,0.0,0.0,87,0.00,,,0.00,WUHU21623XXSP,2013-08-06 11:01:00,
2013-08-06 07:06:00,75.0,70.9,29.10,West,270,0.0,0.0,87,0.00,,,0.00,WUHU21623XXSP,2013-08-06 11:06:00,
2013-08-06 07:11:00,74.8,70.8,29.10,West,270,0.0,0.0,87,0.00,,,0.00,WUHU21623XXSP,2013-08-06 11:11:00,
2013-08-06 07:16:00,75.0,70.9,29.10,West,270,0.0,0.0,87,0.00,,,0.00,WUHU21623XXSP,2013-08-06 11:16:00,
2013-08-06 07:21:00,74.8,70.8,29.10,West,270,0.0,0.0,87,0.00,,,0.00,WUHU21623XXSP,2013-08-06 11:21:00,
2013-08-06 07:26:00,74.8,70.8,29.10,West,270,0.0,0.0,87,0.00,,,0.00,WUHU21623XXSP,2013-08-06 11:26:00,
2013-08-06 07:31:00,74.8,70.8,29.10,West,270,0.0,0.0,87,0.00,,,0.00,WUHU21623XXSP,2013-08-06 11:31:00,
2013-08-06 07:36:00,74.8,70.8,29.10,West,270,0.0,0.0,87,0.00,,,0.00,WUHU21623XXSP,2013-08-06 11:36:00,
2013-08-06 07:41:00,74.8,70.8,29.10,West,270,0.0,0.0,87,0.00,,,0.00,WUHU21623XXSP,2013-08-06 11:41:00,
2013-08-06 07:46:00,75.0,71.3,29.10,West,270,0.0,0.0,88,0.00,,,0.00,WUHU21623XXSP,2013-08-06 11:46:00,
2013-08-06 07:51:00,75.0,71.3,29.10,West,270,0.0,0.0,88,0.00,,,0.00,WUHU21623XXSP,2013-08-06 11:51:00,
2013-08-06 07:56:00,75.0,71.3,29.10,West,270,0.0,0.0,88,0.00,,,0.00,WUHU21623XXSP,2013-08-06 11:56:00,
2013-08-06 08:01:00,75.0,71.3,29.11,West,270,0.0,0.0,88,0.00,,,0.00,WUHU21623XXSP,2013-08-06 12:01:00,
2013-08-06 08:06:00,75.0,71.3,29.10,West,270,0.0,0.0,88,0.00,,,0.00,WUHU21623XXSP,2013-08-06 12:06:00,
2013-08-06 08:11:00,75.0,71.3,29.11,West,270,0.0,0.0,88,0.00,,,0.00,WUHU21623XXSP,2013-08-06 12:11:00,
2013-08-06 08:16:00,75.0,71.3,29.11,West,270,0.0,0.0,88,0.00,,,0.00,WUHU21623XXSP,2013-08-06 12:16:00,
2013-08-06 08:21:00,75.2,71.5,29.12,West,270,0.0,0.0,88,0.00,,,0.00,WUHU21623XXSP,2013-08-06 12:21:00,
2013-08-06 08:26:00,75.4,71.6,29.12,West,270,0.0,0.0,88,0.00,,,0.00,WUHU21623XXSP,2013-08-06 12:26:00,
2013-08-06 08:31:00,75.4,71.6,29.12,West,270,0.0,0.0,88,0.00,,,0.00,WUHU21623XXSP,2013-08-06 12:31:00,
2013-08-06 08:36:00,75.4,71.6,29.12,West,270,0.0,0.0,88,0.00,,,0.00,WUHU21623XXSP,2013-08-06 12:36:00,
2013-08-06 08:41:00,75.4,71.6,29.12,West,270,0.0,0.0,88,0.00,,,0.00,WUHU21623XXSP,2013-08-06 12:41:00,
2013-08-06 08:46:00,75.4,71.6,29.12,West,270,0.0,0.0,88,0.00,,,0.00,WUHU21623XXSP,2013-08-06 12:46:00,
2013-08-06 08:51:00,75.4,71.6,29.12,West,270,0.0,0.0,88,0.00,,,0.00,WUHU21623XXSP,2013-08-06 12:51:00,
2013-08-06 08:56:00,75.4,71.6,29.12,West,270,0.0,0.0,88,0.00,,,0.00,WUHU21623XXSP,2013-08-06 12:56:00,
2013-08-06 09:01:00,75.6,71.8,29.12,West,270,0.0,0.0,88,0.00,,,0.00,WUHU21623XXSP,2013-08-06 13:01:00,
2013-08-06 09:06:00,75.7,72.0,29.12,West,270,0.0,0.0,88,0.00,,,0.00,WUHU21623XXSP,2013-08-06 13:06:00,
2013-08-06 09:11:00,75.7,72.0,29.12,West,270,0.0,0.0,88,0.00,,,0.00,WUHU21623XXSP,2013-08-06 13:11:00,
2013-08-06 09:16:00,75.9,72.2,29.12,West,270,0.0,0.0,88,0.00,,,0.00,WUHU21623XXSP,2013-08-06 13:16:00,
2013-08-06 09:21:00,75.9,72.2,29.12,West,270,0.0,0.0,88,0.00,,,0.00,WUHU21623XXSP,2013-08-06 13:21:00,
2013-08-06 09:26:00,76.1,72.3,29.13,West,270,0.0,0.0,88,0.00,,,0.00,WUHU21623XXSP,2013-08-06 13:26:00,
2013-08-06 09:31:00,76.1,72.0,29.12,West,270,0.0,0.0,87,0.00,,,0.00,WUHU21623XXSP,2013-08-06 13:31:00,
2013-08-06 09:36:00,76.5,72.3,29.12,West,270,0.0,0.0,87,0.00,,,0.00,WUHU21623XXSP,2013-08-06 13:36:00,
2013-08-06 09:41:00,76.6,72.5,29.13,West,270,0.0,0.0,87,0.00,,,0.00,WUHU21623XXSP,2013-08-06 13:41:00,
2013-08-06 09:46:00,76.8,72.7,29.13,West,270,0.0,0.0,87,0.00,,,0.00,WUHU21623XXSP,2013-08-06 13:46:00,
2013-08-06 09:51:00,76.8,72.7,29.13,West,270,0.0,0.0,87,0.00,,,0.00,WUHU21623XXSP,2013-08-06 13:51:00,
2013-08-06 09:56:00,77.2,73.0,29.13,SW,225,0.0,0.0,87,0.00,,,0.00,WUHU21623XXSP,2013-08-06 13:56:00,
2013-08-06 10:01:00,77.4,73.0,29.13,SW,225,0.0,0.0,87,0.00,,,0.00,WUHU21623XXSP,2013-08-06 14:01:00,
2013-08-06 10:06:00,77.7,73.4,29.13,SW,225,0.0,0.0,87,0.00,,,0.00,WUHU21623XXSP,2013-08-06 14:06:00,
2013-08-06 10:11:00,77.9,73.4,29.13,SW,225,0.0,0.0,86,0.00,,,0.00,WUHU21623XXSP,2013-08-06 14:11:00,
2013-08-06 10:16:00,78.1,73.6,29.13,SW,225,0.0,0.0,85,0.00,,,0.00,WUHU21623XXSP,2013-08-06 14:16:00,
2013-08-06 10:21:00,78.1,73.2,29.13,SW,225,0.0,0.0,86,0.00,,,0.00,WUHU21623XXSP,2013-08-06 14:21:00,
2013-08-06 10:26:00,78.6,73.8,29.13,SW,225,0.0,0.0,85,0.00,,,0.00,WUHU21623XXSP,2013-08-06 14:26:00,
2013-08-06 10:31:00,78.8,73.8,29.13,SW,225,0.0,0.0,85,0.00,,,0.00,WUHU21623XXSP,2013-08-06 14:31:00,
2013-08-06 10:36:00,79.2,73.9,29.13,SSW,202,0.0,0.0,84,0.00,,,0.00,WUHU21623XXSP,2013-08-06 14:36:00,
2013-08-06 10:41:00,79.5,73.9,29.13,SSW,202,0.0,0.0,83,0.00,,,0.00,WUHU21623XXSP,2013-08-06 14:41:00,
2013-08-06 10:46:00,79.9,73.9,29.13,SSW,202,0.0,0.0,82,0.00,,,0.00,WUHU21623XXSP,2013-08-06 14:46:00,
2013-08-06 10:51:00,80.1,74.1,29.13,SSW,202,0.0,0.0,82,0.00,,,0.00,WUHU21623XXSP,2013-08-06 14:51:00,
2013-08-06 10:56:00,80.4,74.4,29.13,South,180,0.0,0.0,82,0.00,,,0.00,WUHU21623XXSP,2013-08-06 14:56:00,
2013-08-06 11:01:00,81.1,74.8,29.13,South,180,0.0,0.0,81,0.00,,,0.00,WUHU21623XXSP,2013-08-06 15:01:00,
2013-08-06 11:06:00,81.7,74.2,29.13,West,270,0.0,0.0,78,0.00,,,0.00,WUHU21623XXSP,2013-08-06 15:06:00,
2013-08-06 11:11:00,82.0,73.7,29.13,WSW,247,0.0,0.0,76,0.00,,,0.00,WUHU21623XXSP,2013-08-06 15:11:00,
2013-08-06 11:16:00,82.0,73.7,29.13,WSW,247,0.0,0.0,76,0.00,,,0.00,WUHU21623XXSP,2013-08-06 15:16:00,
2013-08-06 11:21:00,82.2,73.5,29.13,WSW,247,0.0,0.0,75,0.00,,,0.00,WUHU21623XXSP,2013-08-06 15:21:00,
2013-08-06 11:26:00,82.2,73.5,29.12,WSW,247,0.0,0.0,75,0.00,,,0.00,WUHU21623XXSP,2013-08-06 15:26:00,
2013-08-06 11:31:00,82.2,73.1,29.13,WSW,247,0.0,0.0,74,0.00,,,0.00,WUHU21623XXSP,2013-08-06 15:31:00,
2013-08-06 11:36:00,82.2,72.2,29.13,WSW,247,0.0,0.0,72,0.00,,,0.00,WUHU21623XXSP,2013-08-06 15:36:00,
2013-08-06 11:41:00,82.4,72.4,29.13,WSW,247,0.0,0.0,72,0.00,,,0.00,WUHU21623XXSP,2013-08-06 15:41:00,
2013-08-06 11:46:00,82.6,72.6,29.13,WSW,247,0.0,0.0,72,0.00,,,0.00,WUHU21623XXSP,2013-08-06 15:46:00,
2013-08-06 11:51:00,82.9,73.0,29.13,East,90,0.0,0.0,72,0.00,,,0.00,WUHU21623XXSP,2013-08-06 15:51:00,
2013-08-06 11:56:00,82.9,72.1,29.13,WNW,292,0.0,0.0,70,0.00,,,0.00,WUHU21623XXSP,2013-08-06 15:56:00,
2013-08-06 12:01:00,83.3,72.5,29.13,WNW,292,0.0,0.0,70,0.00,,,0.00,WUHU21623XXSP,2013-08-06 16:01:00,
2013-08-06 12:06:00,83.8,72.1,29.13,West,270,0.0,0.0,68,0.00,,,0.00,WUHU21623XXSP,2013-08-06 16:06:00,
2013-08-06 12:11:00,84.0,71.9,29.13,SW,225,0.0,0.0,67,0.00,,,0.00,WUHU21623XXSP,2013-08-06 16:11:00,
2013-08-06 12:16:00,84.0,72.3,29.13,SW,225,0.0,0.0,68,0.00,,,0.00,WUHU21623XXSP,2013-08-06 16:16:00,
2013-08-06 12:21:00,83.8,71.7,29.13,SW,225,0.0,0.0,67,0.00,,,0.00,WUHU21623XXSP,2013-08-06 16:21:00,
2013-08-06 12:26:00,83.7,71.5,29.13,SW,225,0.0,0.0,67,0.00,,,0.00,WUHU21623XXSP,2013-08-06 16:26:00,
2013-08-06 12:31:00,83.7,72.0,29.12,SW,225,0.0,0.0,68,0.00,,,0.00,WUHU21623XXSP,2013-08-06 16:31:00,
2013-08-06 12:36:00,83.7,72.0,29.13,SW,225,0.0,0.0,68,0.00,,,0.00,WUHU21623XXSP,2013-08-06 16:36:00,
2013-08-06 12:41:00,83.5,71.8,29.13,SW,225,0.0,0.0,68,0.00,,,0.00,WUHU21623XXSP,2013-08-06 16:41:00,
2013-08-06 12:46:00,83.5,72.2,29.13,SW,225,0.0,0.0,69,0.00,,,0.00,WUHU21623XXSP,2013-08-06 16:46:00,
2013-08-06 12:51:00,83.7,72.0,29.13,WSW,247,0.0,0.0,68,0.00,,,0.00,WUHU21623XXSP,2013-08-06 16:51:00,
2013-08-06 12:56:00,83.8,71.7,29.13,NNE,22,0.0,0.0,66,0.00,,,0.00,WUHU21623XXSP,2013-08-06 16:56:00,
2013-08-06 13:01:00,83.8,71.2,29.13,North,0,0.0,0.0,66,0.00,,,0.00,WUHU21623XXSP,2013-08-06 17:01:00,
2013-08-06 13:06:00,84.2,71.6,29.13,North,0,0.0,0.0,66,0.00,,,0.00,WUHU21623XXSP,2013-08-06 17:06:00,
2013-08-06 13:11:00,84.4,71.3,29.12,WNW,292,0.0,0.0,65,0.00,,,0.00,WUHU21623XXSP,2013-08-06 17:11:00,
2013-08-06 13:16:00,84.7,71.2,29.12,West,270,0.0,0.0,64,0.00,,,0.00,WUHU21623XXSP,2013-08-06 17:16:00,
2013-08-06 13:21:00,84.9,70.9,29.13,West,270,0.0,0.0,62,0.00,,,0.00,WUHU21623XXSP,2013-08-06 17:21:00,
2013-08-06 13:26:00,85.1,71.1,29.13,South,180,0.0,0.0,63,0.00,,,0.00,WUHU21623XXSP,2013-08-06 17:26:00,
2013-08-06 13:28:00,85.1,71.5,29.12,SSE,157,0.0,0.0,64,0.00,,,0.00,WUHU21623XXSP,2013-08-06 17:28:00,
2013-08-06 13:33:00,85.3,71.1,29.13,SSE,157,0.0,0.0,63,0.00,,,0.00,WUHU21623XXSP,2013-08-06 17:33:00,
2013-08-06 13:38:00,85.3,70.3,29.12,SW,225,0.0,0.0,61,0.00,,,0.00,WUHU21623XXSP,2013-08-06 17:38:00,
2013-08-06 13:43:00,85.1,69.7,29.13,West,270,0.0,0.0,60,0.00,,,0.00,WUHU21623XXSP,2013-08-06 17:43:00,
2013-08-06 13:48:00,84.9,70.4,29.12,WNW,292,0.0,0.0,62,0.00,,,0.00,WUHU21623XXSP,2013-08-06 17:48:00,
2013-08-06 13:53:00,85.3,70.8,29.12,WNW,292,0.0,0.0,62,0.00,,,0.00,WUHU21623XXSP,2013-08-06 17:53:00,
2013-08-06 13:58:00,85.6,71.1,29.12,WNW,292,0.0,0.0,62,0.00,,,0.00,WUHU21623XXSP,2013-08-06 17:58:00,
2013-08-06 14:03:00,85.6,71.1,29.12,ENE,67,0.0,0.0,62,0.00,,,0.00,WUHU21623XXSP,2013-08-06 18:03:00,
2013-08-06 14:08:00,85.6,70.6,29.12,ENE,67,0.0,0.0,61,0.00,,,0.00,WUHU21623XXSP,2013-08-06 18:08:00,
2013-08-06 14:13:00,85.3,70.8,29.11,ENE,67,0.0,0.0,62,0.00,,,0.00,WUHU21623XXSP,2013-08-06 18:13:00,
2013-08-06 14:18:00,85.3,70.3,29.11,West,270,0.0,0.0,61,0.00,,,0.00,WUHU21623XXSP,2013-08-06 18:18:00,
2013-08-06 14:23:00,85.3,70.3,29.11,West,270,0.0,0.0,61,0.00,,,0.00,WUHU21623XXSP,2013-08-06 18:23:00,
2013-08-06 14:28:00,85.5,71.0,29.11,ENE,67,0.0,0.0,62,0.00,,,0.00,WUHU21623XXSP,2013-08-06 18:28:00,
2013-08-06 14:33:00,85.6,71.6,29.11,SSW,202,0.0,0.0,63,0.00,,,0.00,WUHU21623XXSP,2013-08-06 18:33:00,
2013-08-06 14:38:00,85.3,70.8,29.11,SSW,202,0.0,0.0,62,0.00,,,0.00,WUHU21623XXSP,2013-08-06 18:38:00,
2013-08-06 14:43:00,85.1,70.6,29.10,SSW,202,0.0,0.0,62,0.00,,,0.00,WUHU21623XXSP,2013-08-06 18:43:00,
2013-08-06 14:48:00,85.3,70.8,29.10,West,270,0.0,0.0,62,0.00,,,0.00,WUHU21623XXSP,2013-08-06 18:48:00,
2013-08-06 14:53:00,85.6,71.1,29.10,South,180,0.0,0.0,62,0.00,,,0.00,WUHU21623XXSP,2013-08-06 18:53:00,
2013-08-06 14:58:00,85.6,71.1,29.10,SSE,157,0.0,0.0,62,0.00,,,0.00,WUHU21623XXSP,2013-08-06 18:58:00,
2013-08-06 15:03:00,85.8,70.8,29.10,SSE,157,0.0,0.0,61,0.00,,,0.00,WUHU21623XXSP,2013-08-06 19:03:00,
2013-08-06 15:08:00,85.8,71.3,29.09,SW,225,0.0,0.0,62,0.00,,,0.00,WUHU21623XXSP,2013-08-06 19:08:00,
2013-08-06 15:13:00,85.8,70.8,29.09,SSW,202,0.0,0.0,61,0.00,,,0.00,WUHU21623XXSP,2013-08-06 19:13:00,
2013-08-06 15:18:00,86.0,71.0,29.10,South,180,0.0,0.0,61,0.00,,,0.00,WUHU21623XXSP,2013-08-06 19:18:00,
2013-08-06 15:23:00,86.2,71.2,29.09,SSW,202,0.0,0.0,61,0.00,,,0.00,WUHU21623XXSP,2013-08-06 19:23:00,
2013-08-06 15:28:00,86.2,71.2,29.09,SW,225,0.0,0.0,61,0.00,,,0.00,WUHU21623XXSP,2013-08-06 19:28:00,
2013-08-06 15:33:00,86.2,71.2,29.09,SSE,157,0.0,0.0,61,0.00,,,0.00,WUHU21623XXSP,2013-08-06 19:33:00,
2013-08-06 15:38:00,86.2,71.2,29.09,SSE,157,0.0,0.0,61,0.00,,,0.00,WUHU21623XXSP,2013-08-06 19:38:00,
2013-08-06 15:43:00,86.0,71.5,29.09,SSE,157,0.0,0.0,62,0.00,,,0.00,WUHU21623XXSP,2013-08-06 19:43:00,
2013-08-06 15:48:00,85.8,71.3,29.09,SE,135,0.0,0.0,62,0.00,,,0.00,WUHU21623XXSP,2013-08-06 19:48:00,
2013-08-06 15:53:00,85.6,71.6,29.09,SE,135,0.0,0.0,63,0.00,,,0.00,WUHU21623XXSP,2013-08-06 19:53:00,
2013-08-06 15:58:00,85.6,71.6,29.08,SE,135,0.0,0.0,64,0.00,,,0.00,WUHU21623XXSP,2013-08-06 19:58:00,
2013-08-06 16:03:00,85.6,72.1,29.09,SE,135,0.0,0.0,64,0.00,,,0.00,WUHU21623XXSP,2013-08-06 20:03:00,
2013-08-06 16:08:00,85.3,71.7,29.08,SE,135,0.0,0.0,64,0.00,,,0.00,WUHU21623XXSP,2013-08-06 20:08:00,
2013-08-06 16:13:00,85.1,71.5,29.08,SE,135,0.0,0.0,64,0.00,,,0.00,WUHU21623XXSP,2013-08-06 20:13:00,
2013-08-06 16:18:00,85.1,72.0,29.08,SE,135,0.0,0.0,65,0.00,,,0.00,WUHU21623XXSP,2013-08-06 20:18:00,
2013-08-06 16:23:00,84.9,71.8,29.08,SE,135,0.0,0.0,65,0.00,,,0.00,WUHU21623XXSP,2013-08-06 20:23:00,
2013-08-06 16:28:00,84.9,71.8,29.08,SE,135,0.0,0.0,65,0.00,,,0.00,WUHU21623XXSP,2013-08-06 20:28:00,
2013-08-06 16:32:00,84.9,71.4,29.08,West,270,0.0,0.0,64,0.00,,,0.00,WUHU21623XXSP,2013-08-06 20:32:00,
2013-08-06 16:37:00,85.1,72.0,29.08,West,270,0.0,0.0,65,0.00,,,0.00,WUHU21623XXSP,2013-08-06 20:37:00,
2013-08-06 16:42:00,85.1,72.0,29.08,West,270,0.0,0.0,65,0.00,,,0.00,WUHU21623XXSP,2013-08-06 20:42:00,
2013-08-06 16:47:00,85.1,72.5,29.08,West,270,0.0,0.0,66,0.00,,,0.00,WUHU21623XXSP,2013-08-06 20:47:00,
2013-08-06 16:52:00,84.9,72.3,29.09,West,270,0.0,0.0,66,0.00,,,0.00,WUHU21623XXSP,2013-08-06 20:52:00,
2013-08-06 16:57:00,85.1,72.0,29.08,West,270,0.0,0.0,65,0.00,,,0.00,WUHU21623XXSP,2013-08-06 20:57:00,
2013-08-06 17:02:00,85.1,72.5,29.08,SW,225,0.0,0.0,66,0.00,,,0.00,WUHU21623XXSP,2013-08-06 21:02:00,
2013-08-06 17:07:00,84.9,72.3,29.09,West,270,0.0,0.0,66,0.00,,,0.00,WUHU21623XXSP,2013-08-06 21:07:00,
2013-08-06 17:12:00,84.9,72.3,29.08,West,270,0.0,0.0,66,0.00,,,0.00,WUHU21623XXSP,2013-08-06 21:12:00,
2013-08-06 17:17:00,84.7,73.0,29.08,West,270,0.0,0.0,68,0.00,,,0.00,WUHU21623XXSP,2013-08-06 21:17:00,
2013-08-06 17:22:00,84.7,72.6,29.09,West,270,0.0,0.0,67,0.00,,,0.00,WUHU21623XXSP,2013-08-06 21:22:00,
2013-08-06 17:27:00,84.7,73.0,29.08,West,270,0.0,0.0,68,0.00,,,0.00,WUHU21623XXSP,2013-08-06 21:27:00,
2013-08-06 17:32:00,84.6,72.8,29.09,West,270,0.0,0.0,68,0.00,,,0.00,WUHU21623XXSP,2013-08-06 21:32:00,
2013-08-06 17:37:00,84.4,73.1,29.09,West,270,0.0,0.0,69,0.00,,,0.00,WUHU21623XXSP,2013-08-06 21:37:00,
2013-08-06 17:42:00,84.4,72.7,29.09,West,270,0.0,0.0,68,0.00,,,0.00,WUHU21623XXSP,2013-08-06 21:42:00,
2013-08-06 17:47:00,84.4,73.1,29.09,West,270,0.0,0.0,69,0.00,,,0.00,WUHU21623XXSP,2013-08-06 21:47:00,
2013-08-06 17:52:00,84.2,73.0,29.09,West,270,0.0,0.0,69,0.00,,,0.00,WUHU21623XXSP,2013-08-06 21:52:00,
2013-08-06 17:57:00,84.0,72.8,29.09,West,270,0.0,0.0,69,0.00,,,0.00,WUHU21623XXSP,2013-08-06 21:57:00,
2013-08-06 18:02:00,83.8,73.0,29.08,West,270,0.0,0.0,70,0.00,,,0.00,WUHU21623XXSP,2013-08-06 22:02:00,
2013-08-06 18:07:00,83.8,73.0,29.09,West,270,0.0,0.0,70,0.00,,,0.00,WUHU21623XXSP,2013-08-06 22:07:00,
2013-08-06 18:12:00,83.5,72.7,29.08,West,270,0.0,0.0,70,0.00,,,0.00,WUHU21623XXSP,2013-08-06 22:12:00,
2013-08-06 18:17:00,83.5,73.1,29.09,West,270,0.0,0.0,71,0.00,,,0.00,WUHU21623XXSP,2013-08-06 22:17:00,
2013-08-06 18:22:00,83.3,72.9,29.09,NNW,337,0.0,0.0,71,0.00,,,0.00,WUHU21623XXSP,2013-08-06 22:22:00,
2013-08-06 18:27:00,82.9,72.7,29.09,ESE,112,0.0,0.0,72,0.00,,,0.00,WUHU21623XXSP,2013-08-06 22:27:00,
2013-08-06 18:32:00,82.8,72.8,29.09,NNW,337,0.0,0.0,72,0.00,,,0.00,WUHU21623XXSP,2013-08-06 22:32:00,
2013-08-06 18:37:00,82.4,72.4,29.09,NNW,337,0.0,0.0,72,0.00,,,0.00,WUHU21623XXSP,2013-08-06 22:37:00,
2013-08-06 18:42:00,82.2,72.7,29.09,NNW,337,0.0,0.0,73,0.00,,,0.00,WUHU21623XXSP,2013-08-06 22:42:00,
2013-08-06 18:47:00,81.7,71.8,29.08,ENE,67,0.0,0.0,72,0.00,,,0.00,WUHU21623XXSP,2013-08-06 22:47:00,
2013-08-06 18:52:00,81.5,71.6,29.10,WSW,247,0.0,0.0,72,0.00,,,0.00,WUHU21623XXSP,2013-08-06 22:52:00,
2013-08-06 18:57:00,81.3,71.4,29.10,WSW,247,0.0,0.0,72,0.00,,,0.00,WUHU21623XXSP,2013-08-06 22:57:00,
2013-08-06 19:02:00,81.1,71.3,29.09,WSW,247,0.0,0.0,72,0.00,,,0.00,WUHU21623XXSP,2013-08-06 23:02:00,
2013-08-06 19:07:00,81.0,71.1,29.10,WSW,247,0.0,0.0,72,0.00,,,0.00,WUHU21623XXSP,2013-08-06 23:07:00,
2013-08-06 19:12:00,80.6,71.2,29.10,WSW,247,0.0,0.0,73,0.00,,,0.00,WUHU21623XXSP,2013-08-06 23:12:00,
2013-08-06 19:17:00,80.4,71.0,29.10,WSW,247,0.0,0.0,73,0.00,,,0.00,WUHU21623XXSP,2013-08-06 23:17:00,
2013-08-06 19:22:00,80.4,71.4,29.10,WSW,247,0.0,0.0,74,0.00,,,0.00,WUHU21623XXSP,2013-08-06 23:22:00,
2013-08-06 19:27:00,80.2,71.6,29.10,WSW,247,0.0,0.0,75,0.00,,,0.00,WUHU21623XXSP,2013-08-06 23:27:00,
2013-08-06 19:32:00,80.1,71.4,29.10,SE,135,0.0,0.0,75,0.00,,,0.00,WUHU21623XXSP,2013-08-06 23:32:00,
2013-08-06 19:37:00,79.9,71.2,29.11,South,180,0.0,0.0,75,0.00,,,0.00,WUHU21623XXSP,2013-08-06 23:37:00,
2013-08-06 19:42:00,79.5,71.3,29.10,South,180,0.0,0.0,76,0.00,,,0.00,WUHU21623XXSP,2013-08-06 23:42:00,
2013-08-06 19:47:00,79.3,71.3,29.10,South,180,0.0,0.0,76,0.00,,,0.00,WUHU21623XXSP,2013-08-06 23:47:00,
2013-08-06 19:52:00,79.2,70.5,29.10,SE,135,0.0,0.0,75,0.00,,,0.00,WUHU21623XXSP,2013-08-06 23:52:00,
2013-08-06 19:57:00,79.0,70.7,29.10,SE,135,0.0,0.0,76,0.00,,,0.00,WUHU21623XXSP,2013-08-06 23:57:00,
2013-08-06 20:02:00,78.6,70.4,29.10,SE,135,0.0,0.0,76,0.00,,,0.00,WUHU21623XXSP,2013-08-07 00:02:00,
2013-08-06 20:07:00,78.6,70.4,29.10,SE,135,0.0,0.0,76,0.00,,,0.00,WUHU21623XXSP,2013-08-07 00:07:00,
2013-08-06 20:12:00,78.4,70.2,29.10,SE,135,0.0,0.0,76,0.00,,,0.00,WUHU21623XXSP,2013-08-07 00:12:00,
2013-08-06 20:17:00,78.1,69.9,29.10,West,270,0.0,0.0,76,0.00,,,0.00,WUHU21623XXSP,2013-08-07 00:17:00,
2013-08-06 20:22:00,78.1,69.9,29.10,West,270,0.0,0.0,76,0.00,,,0.00,WUHU21623XXSP,2013-08-07 00:22:00,
2013-08-06 20:27:00,77.9,70.1,29.10,West,270,0.0,0.0,77,0.00,,,0.00,WUHU21623XXSP,2013-08-07 00:27:00,
2013-08-06 20:32:00,77.7,69.9,29.10,West,270,0.0,0.0,77,0.00,,,0.00,WUHU21623XXSP,2013-08-07 00:32:00,
2013-08-06 20:37:00,77.5,69.7,29.11,West,270,0.0,0.0,77,0.00,,,0.00,WUHU21623XXSP,2013-08-07 00:37:00,
2013-08-06 20:42:00,77.5,69.7,29.10,West,270,0.0,0.0,77,0.00,,,0.00,WUHU21623XXSP,2013-08-07 00:42:00,
2013-08-06 20:47:00,77.5,69.7,29.10,West,270,0.0,0.0,77,0.00,,,0.00,WUHU21623XXSP,2013-08-07 00:47:00,
2013-08-06 20:52:00,77.4,69.5,29.10,West,270,0.0,0.0,77,0.00,,,0.00,WUHU21623XXSP,2013-08-07 00:52:00,
2013-08-06 20:57:00,77.2,69.5,29.11,West,270,0.0,0.0,77,0.00,,,0.00,WUHU21623XXSP,2013-08-07 00:57:00,
2013-08-06 21:02:00,77.2,69.7,29.11,West,270,0.0,0.0,78,0.00,,,0.00,WUHU21623XXSP,2013-08-07 01:02:00,
2013-08-06 21:07:00,77.2,69.7,29.11,West,270,0.0,0.0,78,0.00,,,0.00,WUHU21623XXSP,2013-08-07 01:07:00,
2013-08-06 21:12:00,77.0,69.7,29.10,West,270,0.0,0.0,78,0.00,,,0.00,WUHU21623XXSP,2013-08-07 01:12:00,
2013-08-06 21:17:00,76.8,69.4,29.10,West,270,0.0,0.0,78,0.00,,,0.00,WUHU21623XXSP,2013-08-07 01:17:00,
2013-08-06 21:22:00,76.8,69.4,29.10,West,270,0.0,0.0,78,0.00,,,0.00,WUHU21623XXSP,2013-08-07 01:22:00,
2013-08-06 21:27:00,76.8,69.4,29.11,West,270,0.0,0.0,78,0.00,,,0.00,WUHU21623XXSP,2013-08-07 01:27:00,
2013-08-06 21:32:00,76.8,69.8,29.11,West,270,0.0,0.0,79,0.00,,,0.00,WUHU21623XXSP,2013-08-07 01:32:00,
2013-08-06 21:37:00,76.8,69.8,29.11,West,270,0.0,0.0,79,0.00,,,0.00,WUHU21623XXSP,2013-08-07 01:37:00,
2013-08-06 21:42:00,76.6,69.6,29.11,West,270,0.0,0.0,79,0.00,,,0.00,WUHU21623XXSP,2013-08-07 01:42:00,
2013-08-06 21:47:00,76.6,69.6,29.11,West,270,0.0,0.0,79,0.00,,,0.00,WUHU21623XXSP,2013-08-07 01:47:00,
2013-08-06 21:52:00,76.6,70.0,29.12,West,270,0.0,0.0,80,0.00,,,0.00,WUHU21623XXSP,2013-08-07 01:52:00,
2013-08-06 21:57:00,76.5,69.9,29.12,West,270,0.0,0.0,80,0.00,,,0.00,WUHU21623XXSP,2013-08-07 01:57:00,
2013-08-06 22:02:00,76.3,69.7,29.12,West,270,0.0,0.0,80,0.00,,,0.00,WUHU21623XXSP,2013-08-07 02:02:00,
2013-08-06 22:07:00,76.3,69.7,29.12,West,270,0.0,0.0,80,0.00,,,0.00,WUHU21623XXSP,2013-08-07 02:07:00,
2013-08-06 22:12:00,76.3,69.7,29.12,West,270,0.0,0.0,80,0.00,,,0.00,WUHU21623XXSP,2013-08-07 02:12:00,
2013-08-06 22:18:00,76.3,69.7,29.11,West,270,0.0,0.0,80,0.00,,,0.00,WUHU21623XXSP,2013-08-07 02:18:00,
2013-08-06 22:23:00,76.3,70.0,29.12,West,270,0.0,0.0,81,0.00,,,0.00,WUHU21623XXSP,2013-08-07 02:23:00,
2013-08-06 22:28:00,76.3,70.0,29.11,West,270,0.0,0.0,81,0.00,,,0.00,WUHU21623XXSP,2013-08-07 02:28:00,
2013-08-06 22:33:00,76.3,70.0,29.11,West,270,0.0,0.0,81,0.00,,,0.00,WUHU21623XXSP,2013-08-07 02:33:00,
2013-08-06 22:38:00,76.3,70.0,29.11,West,270,0.0,0.0,81,0.00,,,0.00,WUHU21623XXSP,2013-08-07 02:38:00,
2013-08-06 22:43:00,76.3,70.0,29.11,West,270,0.0,0.0,81,0.00,,,0.00,WUHU21623XXSP,2013-08-07 02:43:00,
2013-08-06 22:48:00,76.3,70.0,29.11,West,270,0.0,0.0,81,0.00,,,0.00,WUHU21623XXSP,2013-08-07 02:48:00,
2013-08-06 22:53:00,76.5,70.6,29.12,West,270,0.0,0.0,82,0.00,,,0.00,WUHU21623XXSP,2013-08-07 02:53:00,
2013-08-06 22:58:00,76.5,70.6,29.12,West,270,0.0,0.0,82,0.00,,,0.00,WUHU21623XXSP,2013-08-07 02:58:00,
2013-08-06 23:03:00,76.5,70.6,29.11,West,270,0.0,0.0,82,0.00,,,0.00,WUHU21623XXSP,2013-08-07 03:03:00,
2013-08-06 23:08:00,76.5,70.6,29.10,West,270,0.0,0.0,82,0.00,,,0.00,WUHU21623XXSP,2013-08-07 03:08:00,
2013-08-06 23:13:00,76.5,70.2,29.11,West,270,0.0,0.0,82,0.00,,,0.00,WUHU21623XXSP,2013-08-07 03:13:00,
2013-08-06 23:18:00,76.5,70.6,29.11,West,270,0.0,0.0,82,0.00,,,0.00,WUHU21623XXSP,2013-08-07 03:18:00,
2013-08-06 23:23:00,76.5,70.6,29.11,West,270,0.0,0.0,82,0.00,,,0.00,WUHU21623XXSP,2013-08-07 03:23:00,
2013-08-06 23:28:00,76.6,70.7,29.12,West,270,0.0,0.0,82,0.00,,,0.00,WUHU21623XXSP,2013-08-07 03:28:00,
2013-08-06 23:33:00,76.5,70.6,29.12,West,270,0.0,0.0,82,0.00,,,0.00,WUHU21623XXSP,2013-08-07 03:33:00,
2013-08-06 23:38:00,76.5,70.6,29.11,West,270,0.0,0.0,82,0.00,,,0.00,WUHU21623XXSP,2013-08-07 03:38:00,
2013-08-06 23:43:00,76.5,70.6,29.11,West,270,0.0,0.0,82,0.00,,,0.00,WUHU21623XXSP,2013-08-07 03:43:00,
2013-08-06 23:48:00,76.6,70.7,29.11,West,270,0.0,0.0,82,0.00,,,0.00,WUHU21623XXSP,2013-08-07 03:48:00,
2013-08-06 23:53:00,76.6,70.7,29.11,West,270,0.0,0.0,82,0.00,,,0.00,WUHU21623XXSP,2013-08-07 03:53:00,
2013-08-06 23:58:00,76.6,70.7,29.11,West,270,0.0,0.0,82,0.00,,,0.00,WUHU21623XXSP,2013-08-07 03:58:00,